sensor_id;sensor_type;location;lat;lon;timestamp;pressure;altitude;pressure_sealevel;temperature;humidity
63096;BME280;49184;55.596;37.770;2023-09-19T00:03:04;100174.69;;;14.02;77.45
63096;BME280;49184;55.596;37.770;2023-09-19T00:17:39;100148.56;;;13.60;77.39
63096;BME280;49184;55.596;37.770;2023-09-19T00:20:10;100133.31;;;13.54;77.78
63096;BME280;49184;55.596;37.770;2023-09-19T00:23:38;100103.00;;;13.36;77.76
63096;BME280;49184;55.596;37.770;2023-09-19T00:41:48;100101.09;;;13.23;77.74
63096;BME280;49184;55.596;37.770;2023-09-19T00:47:32;100120.22;;;13.28;77.80
63096;BME280;49184;55.596;37.770;2023-09-19T00:50:06;100159.44;;;13.43;77.49
63096;BME280;49184;55.596;37.770;2023-09-19T00:52:35;100146.16;;;13.22;77.78
63096;BME280;49184;55.596;37.770;2023-09-19T00:55:10;100139.78;;;13.13;78.24
63096;BME280;49184;55.596;37.770;2023-09-19T01:01:26;100184.47;;;13.41;78.34
63096;BME280;49184;55.596;37.770;2023-09-19T01:04:01;100166.59;;;13.30;78.29
63096;BME280;49184;55.596;37.770;2023-09-19T01:09:45;100152.16;;;13.24;78.21
63096;BME280;49184;55.596;37.770;2023-09-19T01:35:20;100179.78;;;13.42;77.98
63096;BME280;49184;55.596;37.770;2023-09-19T01:56:38;100104.22;;;13.08;76.33
63096;BME280;49184;55.596;37.770;2023-09-19T02:29:55;100098.81;;;13.03;75.48
63096;BME280;49184;55.596;37.770;2023-09-19T03:28:33;100143.25;;;13.05;76.02
63096;BME280;49184;55.596;37.770;2023-09-19T03:31:05;100129.34;;;12.87;75.81
63096;BME280;49184;55.596;37.770;2023-09-19T03:37:09;100093.28;;;12.80;75.37
63096;BME280;49184;55.596;37.770;2023-09-19T03:40:02;100145.88;;;13.10;75.29
63096;BME280;49184;55.596;37.770;2023-09-19T03:42:55;100105.59;;;12.83;75.03
63096;BME280;49184;55.596;37.770;2023-09-19T03:56:18;100138.78;;;13.09;74.98
63096;BME280;49184;55.596;37.770;2023-09-19T03:58:45;100116.00;;;12.94;74.79
63096;BME280;49184;55.596;37.770;2023-09-19T04:01:17;100071.56;;;12.70;74.97
63096;BME280;49184;55.596;37.770;2023-09-19T04:03:44;100100.88;;;12.97;74.37
63096;BME280;49184;55.596;37.770;2023-09-19T04:06:45;100123.09;;;13.09;74.35
63096;BME280;49184;55.596;37.770;2023-09-19T04:09:11;100142.59;;;13.22;74.32
63096;BME280;49184;55.596;37.770;2023-09-19T04:11:38;100139.84;;;13.22;73.88
63096;BME280;49184;55.596;37.770;2023-09-19T04:14:03;100110.44;;;13.00;73.99
63096;BME280;49184;55.596;37.770;2023-09-19T04:16:30;100138.22;;;13.21;73.80
63096;BME280;49184;55.596;37.770;2023-09-19T04:18:56;100100.25;;;13.00;73.61
63096;BME280;49184;55.596;37.770;2023-09-19T04:21:26;100134.03;;;13.23;73.55
63096;BME280;49184;55.596;37.770;2023-09-19T04:28:02;100074.75;;;13.00;73.29
63096;BME280;49184;55.596;37.770;2023-09-19T04:31:59;100054.41;;;12.78;73.21
63096;BME280;49184;55.596;37.770;2023-09-19T04:34:29;100076.88;;;13.03;73.19
63096;BME280;49184;55.596;37.770;2023-09-19T04:36:56;100114.63;;;13.20;73.46
63096;BME280;49184;55.596;37.770;2023-09-19T04:39:24;100106.22;;;13.16;73.39
63096;BME280;49184;55.596;37.770;2023-09-19T04:41:59;100085.41;;;13.01;73.49
63096;BME280;49184;55.596;37.770;2023-09-19T04:48:32;100113.09;;;13.27;73.17
63096;BME280;49184;55.596;37.770;2023-09-19T04:51:03;100087.03;;;13.02;73.39
63096;BME280;49184;55.596;37.770;2023-09-19T04:53:34;100108.75;;;13.26;73.32
63096;BME280;49184;55.596;37.770;2023-09-19T04:56:05;100112.28;;;13.27;73.80
63096;BME280;49184;55.596;37.770;2023-09-19T04:58:32;100085.00;;;13.08;73.99
63096;BME280;49184;55.596;37.770;2023-09-19T05:01:13;100103.84;;;13.23;74.22
63096;BME280;49184;55.596;37.770;2023-09-19T05:07:31;100122.22;;;13.36;73.83
63096;BME280;49184;55.596;37.770;2023-09-19T05:09:57;100112.41;;;13.44;74.05
63096;BME280;49184;55.596;37.770;2023-09-19T05:12:23;100115.16;;;13.44;73.88
63096;BME280;49184;55.596;37.770;2023-09-19T05:14:52;100070.00;;;13.28;73.52
63096;BME280;49184;55.596;37.770;2023-09-19T05:20:37;100102.81;;;13.55;74.10
63096;BME280;49184;55.596;37.770;2023-09-19T05:23:25;100103.06;;;13.68;74.08
63096;BME280;49184;55.596;37.770;2023-09-19T05:25:53;100107.44;;;13.77;73.81
63096;BME280;49184;55.596;37.770;2023-09-19T05:28:23;100104.69;;;13.77;73.52
63096;BME280;49184;55.596;37.770;2023-09-19T05:31:01;100101.59;;;13.70;73.63
63096;BME280;49184;55.596;37.770;2023-09-19T05:33:32;100092.41;;;13.75;73.25
63096;BME280;49184;55.596;37.770;2023-09-19T05:36:02;100097.19;;;13.92;73.13
63096;BME280;49184;55.596;37.770;2023-09-19T05:38:29;100060.44;;;13.79;73.16
63096;BME280;49184;55.596;37.770;2023-09-19T05:40:55;100094.84;;;14.07;72.75
63096;BME280;49184;55.596;37.770;2023-09-19T05:46:20;100051.41;;;13.87;73.31
63096;BME280;49184;55.596;37.770;2023-09-19T05:52:51;100080.34;;;14.33;72.86
63096;BME280;49184;55.596;37.770;2023-09-19T05:58:22;100066.94;;;14.40;72.79
63096;BME280;49184;55.596;37.770;2023-09-19T06:01:14;100078.19;;;14.61;72.97
63096;BME280;49184;55.596;37.770;2023-09-19T06:03:45;100069.78;;;14.57;72.58
63096;BME280;49184;55.596;37.770;2023-09-19T06:06:12;100081.25;;;14.60;72.48
63096;BME280;49184;55.596;37.770;2023-09-19T06:09:06;100025.34;;;14.24;73.04
63096;BME280;49184;55.596;37.770;2023-09-19T06:12:05;100013.72;;;14.27;72.82
63096;BME280;49184;55.596;37.770;2023-09-19T06:18:31;100082.44;;;14.93;72.45
63096;BME280;49184;55.596;37.770;2023-09-19T06:21:03;100040.31;;;14.75;72.24
63096;BME280;49184;55.596;37.770;2023-09-19T06:23:37;100010.81;;;14.50;72.53
63096;BME280;49184;55.596;37.770;2023-09-19T06:26:03;100019.94;;;14.50;72.94
63096;BME280;49184;55.596;37.770;2023-09-19T06:35:54;100048.91;;;14.91;73.60
63096;BME280;49184;55.596;37.770;2023-09-19T06:39:55;100048.25;;;15.12;73.29
63096;BME280;49184;55.596;37.770;2023-09-19T06:45:51;100021.88;;;15.11;72.97
63096;BME280;49184;55.596;37.770;2023-09-19T06:52:44;100044.13;;;15.52;72.52
63096;BME280;49184;55.596;37.770;2023-09-19T06:55:26;100001.25;;;15.34;72.27
63096;BME280;49184;55.596;37.770;2023-09-19T07:01:21;100031.28;;;15.83;71.82
63096;BME280;49184;55.596;37.770;2023-09-19T07:04:17;100064.97;;;16.27;70.99
63096;BME280;49184;55.596;37.770;2023-09-19T07:06:51;100057.16;;;16.29;70.10
63096;BME280;49184;55.596;37.770;2023-09-19T07:13:12;100073.66;;;16.67;69.61
63096;BME280;49184;55.596;37.770;2023-09-19T07:21:17;100059.75;;;16.84;68.76
63096;BME280;49184;55.596;37.770;2023-09-19T07:23:47;100058.53;;;16.94;68.09
63096;BME280;49184;55.596;37.770;2023-09-19T07:26:32;100075.69;;;17.21;68.14
63096;BME280;49184;55.596;37.770;2023-09-19T10:31:31;99864.19;;;20.66;59.05
63096;BME280;49184;55.596;37.770;2023-09-19T10:34:33;99926.41;;;21.23;58.97
63096;BME280;49184;55.596;37.770;2023-09-19T10:39:57;99888.97;;;21.17;58.39
63096;BME280;49184;55.596;37.770;2023-09-19T10:42:40;99922.09;;;21.49;57.87
63096;BME280;49184;55.596;37.770;2023-09-19T10:48:40;99842.06;;;21.16;57.58
63096;BME280;49184;55.596;37.770;2023-09-19T10:51:17;99874.34;;;21.43;57.55
63096;BME280;49184;55.596;37.770;2023-09-19T10:54:43;99897.66;;;21.88;57.18
63096;BME280;49184;55.596;37.770;2023-09-19T10:57:22;99861.78;;;21.79;56.85
63096;BME280;49184;55.596;37.770;2023-09-19T11:00:12;99835.00;;;21.71;55.94
63096;BME280;49184;55.596;37.770;2023-09-19T11:07:11;99838.63;;;22.02;55.95
63096;BME280;49184;55.596;37.770;2023-09-19T11:09:53;99882.19;;;22.47;55.55
63096;BME280;49184;55.596;37.770;2023-09-19T11:16:17;99875.81;;;22.47;55.65
63096;BME280;49184;55.596;37.770;2023-09-19T11:27:20;99878.44;;;22.66;55.23
63096;BME280;49184;55.596;37.770;2023-09-19T11:29:46;99844.13;;;22.59;54.83
63096;BME280;49184;55.596;37.770;2023-09-19T11:36:13;99840.47;;;22.92;54.10
63096;BME280;49184;55.596;37.770;2023-09-19T11:39:31;99879.47;;;23.26;54.00
63096;BME280;49184;55.596;37.770;2023-09-19T11:49:15;99865.66;;;22.99;54.26
63096;BME280;49184;55.596;37.770;2023-09-19T11:54:41;99840.03;;;22.86;55.21
63096;BME280;49184;55.596;37.770;2023-09-19T11:57:55;99805.28;;;22.77;54.78
63096;BME280;49184;55.596;37.770;2023-09-19T12:00:22;99837.91;;;22.72;55.75
63096;BME280;49184;55.596;37.770;2023-09-19T12:03:13;99816.25;;;22.59;55.16
63096;BME280;49184;55.596;37.770;2023-09-19T12:06:28;99844.44;;;22.91;56.46
63096;BME280;49184;55.596;37.770;2023-09-19T12:09:00;99806.34;;;22.65;55.61
63096;BME280;49184;55.596;37.770;2023-09-19T12:11:34;99770.31;;;22.42;56.16
63096;BME280;49184;55.596;37.770;2023-09-19T12:14:50;99815.59;;;22.72;55.54
63096;BME280;49184;55.596;37.770;2023-09-19T12:17:19;99804.44;;;22.72;56.52
63096;BME280;49184;55.596;37.770;2023-09-19T12:20:25;99798.50;;;22.78;56.64
63096;BME280;49184;55.596;37.770;2023-09-19T12:26:09;99818.47;;;22.83;56.44
63096;BME280;49184;55.596;37.770;2023-09-19T12:28:54;99790.16;;;22.78;56.63
63096;BME280;49184;55.596;37.770;2023-09-19T12:32:02;99819.16;;;23.10;56.28
63096;BME280;49184;55.596;37.770;2023-09-19T12:34:32;99794.88;;;23.14;54.95
63096;BME280;49184;55.596;37.770;2023-09-19T12:37:52;99813.00;;;23.35;54.58
63096;BME280;49184;55.596;37.770;2023-09-19T12:40:22;99815.44;;;23.47;53.97
63096;BME280;49184;55.596;37.770;2023-09-19T12:43:38;99730.47;;;23.34;53.74
63096;BME280;49184;55.596;37.770;2023-09-19T12:46:30;99799.81;;;23.94;53.17
63096;BME280;49184;55.596;37.770;2023-09-19T12:53:25;99760.78;;;24.08;51.81
63096;BME280;49184;55.596;37.770;2023-09-19T13:00:40;99772.28;;;23.96;52.62
63096;BME280;49184;55.596;37.770;2023-09-19T13:03:27;99775.06;;;23.92;53.76
63096;BME280;49184;55.596;37.770;2023-09-19T13:09:14;99785.88;;;23.94;53.33
63096;BME280;49184;55.596;37.770;2023-09-19T13:18:56;99791.78;;;23.82;53.82
63096;BME280;49184;55.596;37.770;2023-09-19T13:21:34;99774.16;;;23.71;54.40
63096;BME280;49184;55.596;37.770;2023-09-19T13:24:58;99753.69;;;23.52;55.72
63096;BME280;49184;55.596;37.770;2023-09-19T13:28:19;99773.28;;;23.59;55.04
63096;BME280;49184;55.596;37.770;2023-09-19T13:31:02;99749.94;;;23.27;56.10
63096;BME280;49184;55.596;37.770;2023-09-19T13:37:09;99768.19;;;23.13;57.26
63096;BME280;49184;55.596;37.770;2023-09-19T13:39:45;99714.09;;;22.77;57.48
63096;BME280;49184;55.596;37.770;2023-09-19T13:45:48;99710.00;;;22.64;57.19
63096;BME280;49184;55.596;37.770;2023-09-19T13:48:22;99736.38;;;22.73;57.89
63096;BME280;49184;55.596;37.770;2023-09-19T13:51:15;99765.50;;;22.80;57.42
63096;BME280;49184;55.596;37.770;2023-09-19T13:53:53;99694.97;;;22.31;57.87
63096;BME280;49184;55.596;37.770;2023-09-19T13:56:19;99741.41;;;22.61;58.63
63096;BME280;49184;55.596;37.770;2023-09-19T13:58:54;99714.09;;;22.33;58.19
63096;BME280;49184;55.596;37.770;2023-09-19T14:01:21;99759.75;;;22.62;58.83
63096;BME280;49184;55.596;37.770;2023-09-19T14:04:28;99722.84;;;22.35;59.23
63096;BME280;49184;55.596;37.770;2023-09-19T14:06:55;99710.38;;;22.21;59.64
63096;BME280;49184;55.596;37.770;2023-09-19T14:10:13;99727.53;;;22.23;59.63
63096;BME280;49184;55.596;37.770;2023-09-19T14:13:39;99688.56;;;21.90;59.65
63096;BME280;49184;55.596;37.770;2023-09-19T14:26:25;99729.03;;;21.84;62.19
63096;BME280;49184;55.596;37.770;2023-09-19T14:32:24;99725.25;;;21.69;62.95
63096;BME280;49184;55.596;37.770;2023-09-19T14:35:41;99697.47;;;21.42;62.99
63096;BME280;49184;55.596;37.770;2023-09-19T14:39:32;99696.16;;;21.32;63.41
63096;BME280;49184;55.596;37.770;2023-09-19T14:42:16;99741.72;;;21.51;64.23
63096;BME280;49184;55.596;37.770;2023-09-19T14:44:44;99670.22;;;20.98;64.46
63096;BME280;49184;55.596;37.770;2023-09-19T14:47:25;99710.28;;;21.20;64.69
63096;BME280;49184;55.596;37.770;2023-09-19T14:50:25;99672.06;;;20.87;65.13
63096;BME280;49184;55.596;37.770;2023-09-19T14:54:11;99660.63;;;20.69;65.88
63096;BME280;49184;55.596;37.770;2023-09-19T14:56:43;99730.28;;;21.03;66.87
63096;BME280;49184;55.596;37.770;2023-09-19T14:59:12;99726.84;;;20.86;67.18
63096;BME280;49184;55.596;37.770;2023-09-19T15:02:06;99731.09;;;20.80;67.49
63096;BME280;49184;55.596;37.770;2023-09-19T15:10:36;99733.38;;;20.52;68.27
63096;BME280;49184;55.596;37.770;2023-09-19T18:30:22;99687.31;;;16.83;75.96
63096;BME280;49184;55.596;37.770;2023-09-19T18:32:51;99697.91;;;16.93;75.98
63096;BME280;49184;55.596;37.770;2023-09-19T18:35:33;99735.16;;;17.24;75.75
63096;BME280;49184;55.596;37.770;2023-09-19T18:38:07;99700.53;;;17.02;75.35
63096;BME280;49184;55.596;37.770;2023-09-19T18:40:58;99684.31;;;16.88;75.21
63096;BME280;49184;55.596;37.770;2023-09-19T18:44:02;99746.00;;;17.29;75.13
63096;BME280;49184;55.596;37.770;2023-09-19T18:46:30;99693.06;;;16.90;75.34
63096;BME280;49184;55.596;37.770;2023-09-19T18:53:11;99667.72;;;16.63;75.85
63096;BME280;49184;55.596;37.770;2023-09-19T19:02:43;99680.75;;;16.75;75.53
63096;BME280;49184;55.596;37.770;2023-09-19T19:09:56;99740.47;;;17.04;76.08
63096;BME280;49184;55.596;37.770;2023-09-19T19:12:45;99714.81;;;16.79;76.28
63096;BME280;49184;55.596;37.770;2023-09-19T19:15:43;99714.56;;;16.72;76.47
63096;BME280;49184;55.596;37.770;2023-09-19T19:18:21;99677.59;;;16.52;76.66
